createdAt,value
2022-09-06T00:01:22.240Z,21.61
2022-09-06T00:03:52.422Z,21.62
2022-09-06T00:06:22.901Z,21.63
2022-09-06T00:08:52.888Z,21.63
2022-09-06T00:11:25.207Z,21.65
2022-09-06T00:13:54.919Z,21.66
2022-09-06T00:16:30.153Z,21.67
2022-09-06T00:19:00.694Z,21.69
2022-09-06T00:21:31.986Z,21.71
2022-09-06T00:24:01.630Z,21.71
2022-09-06T00:26:33.857Z,21.73
2022-09-06T00:29:03.500Z,21.76
2022-09-06T00:31:35.531Z,21.80
2022-09-06T00:34:05.365Z,21.83
2022-09-06T00:36:35.018Z,21.86
2022-09-06T00:39:04.892Z,21.88
2022-09-06T00:41:37.112Z,21.94
2022-09-06T00:44:06.860Z,21.90
2022-09-06T00:46:37.147Z,21.83
2022-09-06T00:49:10.242Z,21.78
2022-09-06T00:51:39.979Z,21.70
2022-09-06T00:54:11.093Z,21.64
2022-09-06T00:56:45.023Z,21.57
2022-09-06T00:59:14.801Z,21.52
2022-09-06T01:01:44.520Z,21.46
2022-09-06T01:04:14.482Z,21.42
2022-09-06T01:06:51.175Z,21.38
2022-09-06T01:09:33.558Z,21.31
2022-09-06T01:12:19.777Z,21.25
2022-09-06T01:15:00.043Z,21.23
2022-09-06T01:17:39.658Z,21.21
2022-09-06T01:20:32.503Z,21.18
2022-09-06T01:23:25.873Z,21.12
2022-09-06T01:26:05.308Z,21.04
2022-09-06T01:28:39.319Z,20.99
2022-09-06T01:31:18.883Z,20.93
2022-09-06T01:33:53.059Z,20.87
2022-09-06T01:36:25.849Z,20.82
2022-09-06T01:38:55.912Z,20.74
2022-09-06T01:41:25.516Z,20.69
2022-09-06T01:43:58.533Z,20.65
2022-09-06T01:46:32.526Z,20.61
2022-09-06T01:49:12.978Z,20.58
2022-09-06T01:51:55.290Z,20.54
2022-09-06T01:54:31.613Z,20.46
2022-09-06T01:57:13.121Z,20.40
2022-09-06T01:59:58.049Z,20.30
2022-09-06T02:02:31.079Z,20.20
2022-09-06T02:05:04.890Z,20.11
2022-09-06T02:07:35.015Z,20.03
2022-09-06T02:10:10.333Z,19.94
2022-09-06T02:12:43.397Z,19.88
2022-09-06T02:15:18.833Z,19.79
2022-09-06T02:17:51.715Z,19.70
2022-09-06T02:20:25.567Z,19.58
2022-09-06T02:22:56.455Z,19.46
2022-09-06T02:25:29.404Z,19.37
2022-09-06T02:27:59.163Z,19.30
2022-09-06T02:30:31.561Z,19.23
2022-09-06T02:33:03.675Z,19.18
2022-09-06T02:35:33.497Z,19.11
2022-09-06T02:38:03.153Z,19.06
2022-09-06T02:40:32.807Z,19.01
2022-09-06T02:43:02.429Z,18.98
2022-09-06T02:45:35.143Z,18.93
2022-09-06T02:48:05.260Z,18.91
2022-09-06T02:50:34.872Z,18.88
2022-09-06T02:53:06.156Z,18.84
2022-09-06T02:55:36.107Z,18.81
2022-09-06T02:58:06.645Z,18.77
2022-09-06T03:00:39.270Z,18.74
2022-09-06T03:03:09.074Z,18.72
2022-09-06T03:05:38.767Z,18.71
2022-09-06T03:08:08.541Z,18.70
2022-09-06T03:10:38.142Z,18.69
2022-09-06T03:13:07.816Z,18.70
2022-09-06T03:15:40.025Z,18.70
2022-09-06T03:18:09.662Z,18.71
2022-09-06T03:20:39.330Z,18.70
2022-09-06T03:23:09.587Z,18.71
2022-09-06T03:25:39.299Z,18.70
2022-09-06T03:28:08.930Z,18.70
2022-09-06T03:30:41.696Z,18.73
2022-09-06T03:33:11.384Z,18.75
2022-09-06T03:35:41.898Z,18.80
2022-09-06T03:38:11.570Z,18.82
2022-09-06T03:40:41.216Z,18.77
2022-09-06T03:43:10.889Z,18.73
2022-09-06T03:45:43.224Z,18.67
2022-09-06T03:48:12.907Z,18.61
2022-09-06T03:50:47.145Z,18.55
2022-09-06T03:53:17.267Z,18.50
2022-09-06T03:55:47.632Z,18.46
2022-09-06T03:58:17.724Z,18.43
2022-09-06T04:00:50.135Z,18.40
2022-09-06T04:03:20.933Z,18.39
2022-09-06T04:05:50.546Z,18.36
2022-09-06T04:08:20.207Z,18.34
2022-09-06T04:10:52.638Z,18.30
2022-09-06T04:13:22.377Z,18.26
2022-09-06T04:15:55.205Z,18.21
2022-09-06T04:18:25.301Z,18.14
2022-09-06T04:20:56.555Z,18.06
2022-09-06T04:23:27.467Z,17.97
2022-09-06T04:25:59.502Z,17.87
2022-09-06T04:28:29.763Z,17.76
2022-09-06T04:31:05.208Z,17.69
2022-09-06T04:33:36.407Z,17.59
2022-09-06T04:36:08.712Z,17.53
2022-09-06T04:38:39.937Z,17.49
2022-09-06T04:41:10.468Z,17.44
2022-09-06T04:43:40.082Z,17.38
2022-09-06T04:46:16.908Z,17.33
2022-09-06T04:48:46.568Z,17.28
2022-09-06T04:51:16.197Z,17.25
2022-09-06T04:53:45.819Z,17.21
2022-09-06T04:56:17.507Z,17.16
2022-09-06T04:58:48.440Z,17.12
2022-09-06T05:01:21.040Z,17.06
2022-09-06T05:03:53.979Z,17.04
2022-09-06T05:06:27.295Z,17.00
2022-09-06T05:08:57.035Z,16.99
2022-09-06T05:11:27.499Z,16.97
2022-09-06T05:13:57.124Z,16.98
2022-09-06T05:16:29.429Z,17.00
2022-09-06T05:18:59.124Z,17.02
2022-09-06T05:21:28.731Z,17.04
2022-09-06T05:23:58.893Z,17.05
2022-09-06T05:26:28.594Z,17.07
2022-09-06T05:28:58.196Z,17.11
2022-09-06T05:31:32.248Z,17.16
2022-09-06T05:34:02.628Z,17.23
2022-09-06T05:36:33.435Z,17.31
2022-09-06T05:39:03.175Z,17.37
2022-09-06T05:41:33.827Z,17.42
2022-09-06T05:44:03.832Z,17.47
2022-09-06T05:46:36.075Z,17.51
2022-09-06T05:49:08.026Z,17.55
2022-09-06T05:51:37.642Z,17.60
2022-09-06T05:54:07.871Z,17.63
2022-09-06T05:56:37.492Z,17.68
2022-09-06T05:59:07.121Z,17.71
2022-09-06T06:01:39.360Z,17.79
2022-09-06T06:04:09.087Z,17.84
2022-09-06T06:06:38.707Z,17.90
2022-09-06T06:09:08.446Z,17.99
2022-09-06T06:11:38.094Z,18.06
2022-09-06T06:14:07.964Z,18.14
2022-09-06T06:16:40.280Z,18.22
2022-09-06T06:19:09.949Z,18.31
2022-09-06T06:21:40.036Z,18.40
2022-09-06T06:24:10.122Z,18.49
2022-09-06T06:26:40.537Z,18.58
2022-09-06T06:29:10.621Z,18.67
2022-09-06T06:31:43.150Z,18.80
2022-09-06T06:34:13.311Z,18.93
2022-09-06T06:36:44.372Z,19.06
2022-09-06T06:39:14.066Z,19.21
2022-09-06T06:41:43.711Z,19.35
2022-09-06T06:44:48.798Z,19.55
2022-09-06T06:47:21.022Z,19.72
2022-09-06T06:49:50.829Z,19.99
2022-09-06T06:52:21.497Z,20.45
2022-09-06T06:54:51.644Z,21.34
2022-09-06T06:57:21.279Z,22.54
2022-09-06T06:59:50.933Z,23.86
2022-09-06T07:02:23.202Z,25.12
2022-09-06T07:04:52.846Z,26.29
2022-09-06T07:12:48.903Z,29.08
2022-09-06T07:15:18.663Z,29.92
2022-09-06T07:17:50.892Z,30.72
2022-09-06T07:20:20.525Z,31.32
2022-09-06T07:22:50.242Z,31.87
2022-09-06T07:25:21.526Z,32.60
2022-09-06T07:27:51.432Z,33.22
2022-09-06T07:30:21.625Z,33.72
2022-09-06T07:32:53.985Z,34.16
2022-09-06T07:35:25.048Z,34.51
2022-09-06T07:37:55.623Z,34.85
2022-09-06T07:40:25.455Z,35.06
2022-09-06T07:42:55.105Z,35.17
2022-09-06T07:45:24.763Z,35.27
2022-09-06T07:48:00.971Z,35.47
2022-09-06T07:50:47.726Z,35.56
2022-09-06T07:53:26.235Z,35.82
2022-09-06T07:56:00.857Z,36.09
2022-09-06T07:58:31.490Z,36.29
2022-09-06T08:01:30.186Z,36.53
2022-09-06T08:04:03.904Z,36.45
2022-09-06T08:09:25.214Z,36.65
2022-09-06T08:11:55.420Z,36.78
2022-09-06T08:14:27.336Z,37.04
2022-09-06T08:16:57.001Z,37.17
2022-09-06T08:19:29.335Z,37.20
2022-09-06T08:21:59.017Z,37.13
2022-09-06T08:24:29.082Z,36.99
2022-09-06T08:26:58.820Z,37.19
2022-09-06T08:29:28.632Z,37.18
2022-09-06T08:31:58.441Z,37.36
2022-09-06T08:34:30.777Z,37.72
2022-09-06T08:37:00.513Z,38.03
2022-09-06T08:39:30.301Z,38.39
2022-09-06T08:42:03.810Z,38.84
2022-09-06T08:47:26.962Z,38.66
2022-09-06T08:50:04.506Z,38.47
2022-09-06T08:53:15.721Z,38.43
2022-09-06T08:55:46.305Z,38.41
2022-09-06T08:58:26.158Z,38.51
2022-09-06T09:00:59.202Z,38.74
2022-09-06T09:03:34.359Z,38.97
2022-09-06T09:06:07.374Z,39.40
2022-09-06T09:08:43.111Z,39.45
2022-09-06T09:11:17.206Z,39.52
2022-09-06T09:13:55.902Z,39.88
2022-09-06T09:16:25.993Z,40.13
2022-09-06T09:18:58.209Z,40.62
2022-09-06T09:21:31.258Z,41.00
2022-09-06T09:24:02.397Z,41.14
2022-09-06T09:26:37.433Z,41.36
2022-09-06T09:29:08.825Z,41.41
2022-09-06T09:31:40.952Z,41.73
2022-09-06T09:34:13.790Z,42.06
2022-09-06T09:39:39.779Z,42.91
2022-09-06T09:42:10.818Z,43.03
2022-09-06T09:44:45.702Z,42.89
2022-09-06T09:47:28.478Z,42.80
2022-09-06T09:49:58.154Z,42.85
2022-09-06T09:52:31.940Z,42.90
2022-09-06T09:55:05.101Z,42.95
2022-09-06T09:57:46.532Z,43.14
2022-09-06T10:00:17.136Z,43.16
2022-09-06T10:02:46.925Z,42.88
2022-09-06T10:05:23.580Z,42.40
2022-09-06T10:07:57.726Z,41.69
2022-09-06T10:10:28.843Z,40.59
2022-09-06T10:13:10.514Z,39.22
2022-09-06T10:15:41.758Z,37.99
2022-09-06T10:18:18.423Z,36.87
2022-09-06T10:20:52.792Z,35.74
2022-09-06T10:26:27.020Z,33.89
2022-09-06T10:29:01.790Z,33.13
2022-09-06T10:31:52.188Z,32.35
2022-09-06T10:34:51.808Z,31.79
2022-09-06T10:37:28.849Z,31.37
2022-09-06T10:40:06.542Z,31.05
2022-09-06T10:42:43.554Z,30.76
2022-09-06T10:45:27.118Z,30.52
2022-09-06T10:48:02.675Z,30.35
2022-09-06T10:50:40.101Z,30.24
2022-09-06T10:53:14.513Z,30.13
2022-09-06T10:55:48.720Z,30.04
2022-09-06T10:58:22.512Z,29.96
2022-09-06T11:00:54.276Z,29.86
2022-09-06T11:06:20.287Z,29.67
2022-09-06T11:08:57.869Z,29.61
2022-09-06T11:11:39.550Z,29.50
2022-09-06T11:14:13.468Z,29.42
2022-09-06T11:16:48.529Z,29.38
2022-09-06T11:19:22.701Z,29.34
2022-09-06T11:22:11.220Z,29.32
2022-09-06T11:24:53.364Z,29.27
2022-09-06T11:27:35.961Z,29.21
2022-09-06T11:30:08.010Z,29.20
2022-09-06T11:32:41.084Z,29.18
2022-09-06T11:35:13.997Z,29.16
2022-09-06T11:37:49.638Z,29.14
2022-09-06T11:40:27.183Z,29.13
2022-09-06T11:43:48.336Z,29.15
2022-09-06T11:46:56.571Z,29.14
2022-09-06T11:49:41.893Z,29.13
2022-09-06T11:52:44.342Z,29.09
2022-09-06T11:55:17.267Z,29.04
2022-09-06T11:57:50.488Z,29.03
2022-09-06T12:00:24.004Z,29.01
2022-09-06T12:02:54.360Z,28.97
2022-09-06T12:05:29.441Z,28.96
2022-09-06T12:08:28.213Z,28.99
2022-09-06T12:11:03.771Z,28.98
2022-09-06T12:13:44.693Z,28.97
2022-09-06T12:16:14.979Z,28.96
2022-09-06T12:19:00.915Z,28.98
2022-09-06T12:21:52.340Z,29.02
2022-09-06T12:24:52.099Z,29.09
2022-09-06T12:27:22.989Z,29.16
2022-09-06T12:29:58.895Z,29.20
2022-09-06T12:32:36.572Z,29.25
2022-09-06T12:38:02.192Z,29.26
2022-09-06T12:40:33.702Z,29.28
2022-09-06T12:43:05.682Z,29.30
2022-09-06T12:45:35.748Z,29.30
2022-09-06T12:48:11.554Z,29.30
2022-09-06T12:50:41.729Z,29.31
2022-09-06T12:53:26.655Z,29.36
2022-09-06T12:56:06.079Z,29.38
2022-09-06T12:58:36.102Z,29.40
2022-09-06T13:01:12.495Z,29.42
2022-09-06T13:03:45.354Z,29.45
2022-09-06T13:06:26.641Z,29.44
2022-09-06T13:09:01.039Z,29.34
2022-09-06T13:11:34.292Z,29.28
2022-09-06T13:14:03.984Z,29.28
2022-09-06T13:16:37.641Z,29.28
2022-09-06T13:19:14.529Z,29.31
2022-09-06T13:21:46.058Z,29.31
2022-09-06T13:24:26.977Z,29.35
2022-09-06T13:26:57.248Z,29.37
2022-09-06T13:29:28.699Z,29.37
2022-09-06T13:31:59.812Z,29.39
2022-09-06T13:34:30.813Z,29.43
2022-09-06T13:37:04.754Z,29.47
2022-09-06T13:39:39.430Z,29.49
2022-09-06T13:42:10.694Z,29.48
2022-09-06T13:44:41.549Z,29.51
2022-09-06T13:47:11.207Z,29.52
2022-09-06T13:49:40.847Z,29.53
2022-09-06T13:52:10.913Z,29.53
2022-09-06T13:54:43.137Z,29.54
2022-09-06T13:57:13.207Z,29.58
2022-09-06T13:59:42.896Z,29.60
2022-09-06T14:02:16.010Z,29.62
2022-09-06T14:04:45.819Z,29.63
2022-09-06T14:07:15.445Z,29.63
2022-09-06T14:09:49.757Z,29.60
2022-09-06T14:12:19.463Z,29.59
2022-09-06T14:14:49.068Z,29.53
2022-09-06T14:17:19.050Z,29.48
2022-09-06T14:19:49.561Z,29.44
2022-09-06T14:22:19.239Z,29.42
2022-09-06T14:24:51.553Z,29.38
2022-09-06T14:27:21.245Z,29.32
2022-09-06T14:29:50.920Z,29.25
2022-09-06T14:32:22.690Z,29.17
2022-09-06T14:34:52.525Z,29.13
2022-09-06T14:37:22.174Z,29.12
2022-09-06T14:39:54.466Z,29.17
2022-09-06T14:42:24.726Z,29.20
2022-09-06T14:44:54.349Z,29.21
2022-09-06T14:47:24.032Z,29.20
2022-09-06T14:49:53.665Z,29.17
2022-09-06T14:52:23.336Z,29.16
2022-09-06T14:54:55.516Z,29.14
2022-09-06T14:57:25.158Z,29.12
2022-09-06T14:59:55.287Z,29.08
2022-09-06T15:02:26.365Z,29.07
2022-09-06T15:04:56.029Z,29.03
2022-09-06T15:07:25.831Z,29.02
2022-09-06T15:09:58.093Z,29.00
2022-09-06T15:12:28.015Z,28.99
2022-09-06T15:14:57.629Z,28.96
2022-09-06T15:17:27.253Z,28.92
2022-09-06T15:19:57.142Z,28.92
2022-09-06T15:22:26.909Z,28.91
2022-09-06T15:24:59.145Z,28.90
2022-09-06T15:27:29.530Z,28.89
2022-09-06T15:29:59.299Z,28.86
2022-09-06T15:32:29.388Z,28.83
2022-09-06T15:35:04.457Z,28.80
2022-09-06T15:37:34.480Z,28.75
2022-09-06T15:40:07.184Z,28.73
2022-09-06T15:42:36.942Z,28.69
2022-09-06T15:45:07.021Z,28.66
2022-09-06T15:47:37.385Z,28.66
2022-09-06T15:50:07.765Z,28.65
2022-09-06T15:52:37.424Z,28.64
2022-09-06T15:55:23.154Z,28.63
2022-09-06T15:57:52.813Z,28.61
2022-09-06T16:00:23.732Z,28.60
2022-09-06T16:02:53.471Z,28.57
2022-09-06T16:08:12.994Z,28.50
2022-09-06T16:10:45.249Z,28.46
2022-09-06T16:13:14.873Z,28.42
2022-09-06T16:15:44.497Z,28.38
2022-09-06T16:18:14.126Z,28.36
2022-09-06T16:20:43.971Z,28.34
2022-09-06T16:23:13.593Z,28.31
2022-09-06T16:25:50.220Z,28.29
2022-09-06T16:28:19.853Z,28.23
2022-09-06T16:30:49.497Z,28.17
2022-09-06T16:33:19.123Z,28.11
2022-09-06T16:35:48.787Z,28.08
2022-09-06T16:38:18.463Z,28.03
2022-09-06T16:40:50.768Z,28.00
2022-09-06T16:43:20.381Z,27.98
2022-09-06T16:45:58.670Z,27.96
2022-09-06T16:48:28.825Z,27.90
2022-09-06T16:50:58.517Z,27.84
2022-09-06T16:53:28.324Z,27.79
2022-09-06T16:56:00.504Z,27.70
2022-09-06T16:58:30.225Z,27.64
2022-09-06T17:01:00.844Z,27.57
2022-09-06T17:03:30.804Z,27.51
2022-09-06T17:06:00.439Z,27.48
2022-09-06T17:08:30.120Z,27.45
2022-09-06T17:11:03.504Z,27.40
2022-09-06T17:13:32.869Z,27.30
2022-09-06T17:16:17.168Z,27.17
2022-09-06T17:18:48.625Z,27.07
2022-09-06T17:21:18.299Z,26.96
2022-09-06T17:23:48.022Z,26.88
2022-09-06T17:26:21.358Z,26.77
2022-09-06T17:28:51.019Z,26.68
2022-09-06T17:31:25.672Z,26.61
2022-09-06T17:33:56.262Z,26.58
2022-09-06T17:36:27.789Z,26.57
2022-09-06T17:39:02.876Z,26.57
2022-09-06T17:41:37.113Z,26.56
2022-09-06T17:44:07.466Z,26.55
2022-09-06T17:46:41.147Z,26.51
2022-09-06T17:49:13.732Z,26.47
2022-09-06T17:51:43.927Z,26.45
2022-09-06T17:54:13.546Z,26.44
2022-09-06T17:56:46.255Z,26.41
2022-09-06T17:59:16.731Z,26.37
2022-09-06T18:01:47.319Z,26.32
2022-09-06T18:04:18.086Z,26.28
2022-09-06T18:06:48.234Z,26.24
2022-09-06T18:09:19.136Z,26.17
2022-09-06T18:11:51.424Z,26.12
2022-09-06T18:14:21.928Z,26.06
2022-09-06T18:16:54.262Z,25.99
2022-09-06T18:19:24.458Z,25.89
2022-09-06T18:21:54.269Z,25.77
2022-09-06T18:24:24.080Z,25.66
2022-09-06T18:26:56.344Z,25.55
2022-09-06T18:29:26.012Z,25.42
2022-09-06T18:31:57.368Z,25.29
2022-09-06T18:34:27.049Z,25.17
2022-09-06T18:36:57.132Z,25.08
2022-09-06T18:39:26.808Z,24.99
2022-09-06T18:42:10.579Z,24.92
2022-09-06T18:44:40.631Z,24.86
2022-09-06T18:47:12.292Z,24.80
2022-09-06T18:49:44.336Z,24.77
2022-09-06T18:52:14.419Z,24.72
2022-09-06T18:54:44.871Z,24.69
2022-09-06T18:57:17.333Z,24.63
2022-09-06T18:59:47.359Z,24.56
2022-09-06T19:02:17.045Z,24.51
2022-09-06T19:04:46.731Z,24.48
2022-09-06T19:07:16.360Z,24.45
2022-09-06T19:09:45.982Z,24.43
2022-09-06T19:12:18.256Z,24.43
2022-09-06T19:14:47.906Z,24.45
2022-09-06T19:17:17.568Z,24.45
2022-09-06T19:19:47.202Z,24.44
2022-09-06T19:22:17.674Z,24.43
2022-09-06T19:24:47.285Z,24.41
2022-09-06T19:27:19.518Z,24.43
2022-09-06T19:29:49.701Z,24.44
2022-09-06T19:32:22.261Z,24.41
2022-09-06T19:34:52.043Z,24.38
2022-09-06T19:37:23.863Z,24.35
2022-09-06T19:39:54.043Z,24.32
2022-09-06T19:42:26.427Z,24.32
2022-09-06T19:44:56.196Z,24.33
2022-09-06T19:47:25.832Z,24.35
2022-09-06T19:49:55.430Z,24.37
2022-09-06T19:52:25.109Z,24.38
2022-09-06T19:54:55.105Z,24.38
2022-09-06T19:57:27.311Z,24.39
2022-09-06T19:59:56.987Z,24.36
2022-09-06T20:02:26.711Z,24.32
2022-09-06T20:04:56.497Z,24.29
2022-09-06T20:07:27.234Z,24.28
2022-09-06T20:09:57.020Z,24.29
2022-09-06T20:12:29.773Z,24.29
2022-09-06T20:14:59.442Z,24.27
2022-09-06T20:17:33.782Z,24.24
2022-09-06T20:20:04.369Z,24.21
2022-09-06T20:22:34.050Z,24.20
2022-09-06T20:25:03.663Z,24.19
2022-09-06T20:27:35.881Z,24.19
2022-09-06T20:30:05.642Z,24.18
2022-09-06T20:32:35.290Z,24.16
2022-09-06T20:35:04.933Z,24.13
2022-09-06T20:37:34.569Z,24.09
2022-09-06T20:40:05.478Z,24.04
2022-09-06T20:42:42.177Z,23.99
2022-09-06T20:45:12.929Z,23.92
2022-09-06T20:47:42.588Z,23.86
2022-09-06T20:50:13.048Z,23.78
2022-09-06T20:52:42.655Z,23.72
2022-09-06T20:55:12.759Z,23.66
2022-09-06T20:57:45.033Z,23.59
2022-09-06T21:00:15.913Z,23.56
2022-09-06T21:02:45.543Z,23.51
2022-09-06T21:05:15.180Z,23.46
2022-09-06T21:07:44.806Z,23.42
2022-09-06T21:10:14.445Z,23.40
2022-09-06T21:12:46.721Z,23.36
2022-09-06T21:15:16.411Z,23.30
2022-09-06T21:17:46.024Z,23.25
2022-09-06T21:20:15.758Z,23.19
2022-09-06T21:22:45.389Z,23.15
2022-09-06T21:25:15.050Z,23.10
2022-09-06T21:27:47.251Z,23.05
2022-09-06T21:30:17.498Z,22.98
2022-09-06T21:32:47.152Z,22.92
2022-09-06T21:35:16.803Z,22.86
2022-09-06T21:37:46.416Z,22.78
2022-09-06T21:40:16.379Z,22.73
2022-09-06T21:42:48.909Z,22.67
2022-09-06T21:45:18.616Z,22.61
2022-09-06T21:47:48.289Z,22.55
2022-09-06T21:50:18.225Z,22.51
2022-09-06T21:52:47.912Z,22.45
2022-09-06T21:55:17.637Z,22.40
2022-09-06T21:57:49.858Z,22.36
2022-09-06T22:00:19.888Z,22.31
2022-09-06T22:02:49.802Z,22.27
2022-09-06T22:05:19.436Z,22.22
2022-09-06T22:07:49.057Z,22.18
2022-09-06T22:10:18.844Z,22.17
2022-09-06T22:12:51.046Z,22.12
2022-09-06T22:15:22.238Z,22.10
2022-09-06T22:17:52.197Z,22.11
2022-09-06T22:20:22.882Z,22.14
2022-09-06T22:22:52.981Z,22.15
2022-09-06T22:25:22.868Z,22.17
2022-09-06T22:27:55.068Z,22.17
2022-09-06T22:30:25.923Z,22.18
2022-09-06T22:32:55.995Z,22.21
2022-09-06T22:35:25.652Z,22.23
2022-09-06T22:37:55.281Z,22.25
2022-09-06T22:40:24.909Z,22.27
2022-09-06T22:42:57.191Z,22.33
2022-09-06T22:45:26.961Z,22.35
2022-09-06T22:47:56.568Z,22.36
2022-09-06T22:50:26.208Z,22.38
2022-09-06T22:52:55.835Z,22.40
2022-09-06T22:55:25.464Z,22.42
2022-09-06T22:57:57.644Z,22.43
2022-09-06T23:00:27.689Z,22.44
2022-09-06T23:02:57.486Z,22.46
2022-09-06T23:05:27.110Z,22.50
2022-09-06T23:07:57.691Z,22.51
2022-09-06T23:10:27.546Z,22.51
2022-09-06T23:13:00.315Z,22.51
2022-09-06T23:15:29.917Z,22.51
2022-09-06T23:17:59.544Z,22.48
2022-09-06T23:20:29.286Z,22.48
2022-09-06T23:22:58.864Z,22.48
2022-09-06T23:25:28.449Z,22.47
2022-09-06T23:28:01.850Z,22.38
2022-09-06T23:30:31.928Z,22.12
2022-09-06T23:33:01.569Z,21.74
2022-09-06T23:35:31.131Z,21.27
2022-09-06T23:38:00.703Z,20.74
2022-09-06T23:40:30.282Z,20.22
2022-09-06T23:43:02.438Z,19.71
2022-09-06T23:45:32.026Z,19.22
2022-09-06T23:48:01.616Z,18.77
2022-09-06T23:50:31.268Z,18.39
2022-09-06T23:53:00.828Z,18.07
2022-09-06T23:55:30.429Z,17.84
2022-09-06T23:58:02.550Z,17.68
